Time;durP1;ratioP1;P1;durP2;ratioP2;P2;SDS_P1;SDS_P2;PMS_P1;PMS_P2;Temp;Humidity;BMP_temperature;BMP_pressure;BME280_temperature;BME280_humidity;BME280_pressure;Samples;Min_cycle;Max_cycle;Signal;HPM_P1;HPM_P2
2022/02/26 00:02:04;;;;;;;24.00;5.50;;;4.50;99.90;;;;;;6156978;23;20036;-88
2022/02/26 00:04:41;;;;;;;24.65;4.93;;;4.50;99.90;;;;;;6157386;23;20037;-88
2022/02/26 00:07:12;;;;;;;20.30;4.78;;;4.40;99.90;;;;;;6157773;23;20029;-88
2022/02/26 00:10:00;;;;;;;19.75;5.20;;;4.40;99.90;;;;;;6156502;23;20432;-86
2022/02/26 00:12:24;;;;;;;20.55;5.38;;;4.40;99.90;;;;;;6157761;23;20029;-87
2022/02/26 00:14:52;;;;;;;22.05;4.90;;;4.40;99.90;;;;;;6157174;23;20008;-88
2022/02/26 00:17:28;;;;;;;14.13;3.90;;;4.40;99.90;;;;;;6156891;23;20005;-89
2022/02/26 00:20:02;;;;;;;14.15;4.97;;;4.30;99.90;;;;;;6157676;23;20001;-89
2022/02/26 00:22:36;;;;;;;17.48;5.25;;;4.30;99.90;;;;;;6158613;23;20013;-88
2022/02/26 00:25:09;;;;;;;16.08;5.40;;;4.30;99.90;;;;;;6158429;23;20077;-87
2022/02/26 00:27:52;;;;;;;;;;;;;;;;;;;;;
2022/02/26 00:30:39;;;;;;;;;;;;;;;;;;;;;
2022/02/26 00:33:13;;;;;;;17.50;4.70;;;4.20;99.90;;;;;;6157358;23;20080;-88
2022/02/26 00:35:42;;;;;;;14.60;4.45;;;4.20;99.90;;;;;;6132683;23;20005;-88
2022/02/26 00:38:13;;;;;;;11.95;4.70;;;4.20;99.90;;;;;;6157030;23;20001;-87
2022/02/26 00:40:51;;;;;;;16.83;5.13;;;4.10;99.90;;;;;;6157092;23;20088;-88
2022/02/26 00:43:25;;;;;;;13.18;4.43;;;4.10;99.90;;;;;;6109665;23;20017;-88
2022/02/26 00:46:11;;;;;;;;;;;;;;;;;;;;;
2022/02/26 00:51:47;;;;;;;12.55;4.57;;;3.90;99.90;;;;;;6158143;23;20088;-89
2022/02/26 00:54:16;;;;;;;16.17;4.15;;;4.00;99.90;;;;;;6111927;23;20005;-88
2022/02/26 00:57:08;;;;;;;14.73;4.07;;;3.90;99.90;;;;;;6156892;23;20025;-88
2022/02/26 00:59:56;;;;;;;17.65;4.60;;;3.90;99.90;;;;;;6157760;23;20008;-88
2022/02/26 01:02:44;;;;;;;16.33;4.30;;;3.90;99.90;;;;;;6113409;23;20052;-88
2022/02/26 01:05:29;;;;;;;;;;;;;;;;;;;;;
2022/02/26 01:08:05;;;;;;;11.32;3.53;;;3.80;99.90;;;;;;6157685;23;20372;-88
2022/02/26 01:10:34;;;;;;;17.92;4.60;;;3.70;99.90;;;;;;6156674;23;20064;-88
2022/02/26 01:13:05;;;;;;;20.08;4.30;;;3.70;99.90;;;;;;6156536;23;20017;-88
2022/02/26 01:15:31;;;;;;;15.25;5.18;;;3.70;99.90;;;;;;6156377;23;20005;-88
2022/02/26 01:17:57;;;;;;;19.30;4.47;;;3.70;99.90;;;;;;6157097;23;20005;-88
2022/02/26 01:20:40;;;;;;;17.15;4.57;;;3.70;99.90;;;;;;6131621;23;20029;-88
2022/02/26 01:23:11;;;;;;;13.32;4.63;;;3.70;99.90;;;;;;6158046;23;20008;-89
2022/02/26 01:25:49;;;;;;;;;;;;;;;;;;;;;
2022/02/26 01:28:51;;;;;;;15.75;3.90;;;3.60;99.90;;;;;;6156584;23;20058;-88
2022/02/26 01:31:19;;;;;;;;;;;3.60;99.90;;;;;;6156695;23;20056;-88
2022/02/26 01:33:54;;;;;;;15.63;4.53;;;3.50;99.90;;;;;;6156454;23;19904;-88
2022/02/26 01:36:32;;;;;;;;;;;;;;;;;;;;;
2022/02/26 01:39:04;;;;;;;11.95;3.80;;;3.50;99.90;;;;;;6158279;23;20073;-88
2022/02/26 01:41:43;;;;;;;13.15;4.28;;;3.40;99.90;;;;;;6157503;23;20066;-89
2022/02/26 01:44:21;;;;;;;17.50;4.28;;;3.40;99.90;;;;;;6156811;23;20055;-88
2022/02/26 01:46:53;;;;;;;20.20;4.63;;;3.40;99.90;;;;;;6158314;23;20010;-88
2022/02/26 01:49:22;;;;;;;17.83;4.22;;;3.40;99.90;;;;;;6156710;23;20047;-88
2022/02/26 01:52:21;;;;;;;13.63;4.07;;;3.30;99.90;;;;;;6132014;23;20096;-88
2022/02/26 01:54:53;;;;;;;15.27;4.40;;;3.40;99.90;;;;;;6156825;23;20020;-88
2022/02/26 01:57:35;;;;;;;15.30;4.05;;;3.30;99.90;;;;;;6117267;23;20008;-88
2022/02/26 02:00:16;;;;;;;19.17;4.32;;;3.30;99.90;;;;;;6143942;23;20064;-88
2022/02/26 02:02:53;;;;;;;17.50;5.32;;;3.30;99.90;;;;;;6164412;23;20017;-88
2022/02/26 02:05:43;;;;;;;;;;;;;;;;;;;;;
2022/02/26 02:08:26;;;;;;;17.27;4.75;;;3.20;99.90;;;;;;6157797;23;20097;-88
2022/02/26 02:11:08;;;;;;;15.43;4.18;;;3.20;99.90;;;;;;6159645;23;20061;-88
2022/02/26 02:13:56;;;;;;;11.05;4.25;;;3.20;99.90;;;;;;6159219;23;20133;-89
2022/02/26 02:16:31;;;;;;;9.88;3.20;;;3.20;99.90;;;;;;6132756;23;20010;-88
2022/02/26 02:19:10;;;;;;;11.27;3.88;;;3.10;99.90;;;;;;6157721;23;20056;-88
2022/02/26 02:21:48;;;;;;;8.63;3.55;;;3.10;99.90;;;;;;6157671;23;20029;-88
2022/02/26 02:24:24;;;;;;;;;;;;;;;;;;;;;
2022/02/26 02:26:53;;;;;;;12.25;3.45;;;3.00;99.90;;;;;;6157557;23;20089;-89
2022/02/26 02:29:29;;;;;;;12.85;4.00;;;3.00;99.90;;;;;;6156139;23;20056;-91
2022/02/26 02:32:05;;;;;;;14.13;4.40;;;3.00;99.90;;;;;;6132869;23;20044;-88
2022/02/26 02:34:49;;;;;;;;;;;;;;;;;;;;;
2022/02/26 02:37:15;;;;;;;18.23;4.50;;;3.00;99.90;;;;;;6157321;23;20089;-88
2022/02/26 02:39:59;;;;;;;13.80;3.97;;;3.00;99.90;;;;;;6156443;23;20026;-88
2022/02/26 02:42:28;;;;;;;15.55;4.57;;;3.00;99.90;;;;;;6156115;23;20496;-89
2022/02/26 02:45:20;;;;;;;17.42;3.55;;;2.90;99.90;;;;;;6155417;23;20009;-88
2022/02/26 02:47:59;;;;;;;10.23;4.57;;;2.90;99.90;;;;;;6133372;23;20001;-89
2022/02/26 02:53:36;;;;;;;13.75;4.53;;;2.90;99.90;;;;;;6141579;23;20449;-88
2022/02/26 02:56:52;;;;;;;18.23;5.47;;;2.80;99.90;;;;;;6156799;23;20033;-88
2022/02/26 02:59:20;;;;;;;12.05;5.03;;;2.80;99.90;;;;;;6162060;23;20088;-88
2022/02/26 03:02:32;;;;;;;;;;;;;;;;;;;;;
2022/02/26 03:05:14;;;;;;;12.32;4.45;;;2.80;99.90;;;;;;6187555;23;20020;-88
2022/02/26 03:10:50;;;;;;;11.68;4.47;;;2.70;99.90;;;;;;6213438;23;20009;-90
2022/02/26 03:13:21;;;;;;;14.15;4.20;;;2.70;99.90;;;;;;6191011;23;20004;-89
2022/02/26 03:16:08;;;;;;;;;;;;;;;;;;;;;
2022/02/26 03:19:05;;;;;;;13.43;5.63;;;2.70;99.90;;;;;;6188830;23;20008;-90
2022/02/26 03:21:36;;;;;;;14.60;5.40;;;2.60;99.90;;;;;;6193129;23;20012;-90
2022/02/26 03:24:08;;;;;;;13.95;5.25;;;2.60;99.90;;;;;;6161497;23;20063;-89
2022/02/26 03:26:53;;;;;;;;;;;;;;;;;;;;;
2022/02/26 03:29:26;;;;;;;9.93;4.70;;;2.60;99.90;;;;;;6187662;23;20044;-89
2022/02/26 03:32:04;;;;;;;;;;;;;;;;;;;;;
2022/02/26 03:34:45;;;;;;;14.70;5.45;;;2.60;99.90;;;;;;6189342;23;20092;-89
2022/02/26 03:37:24;;;;;;;23.55;5.88;;;2.60;99.90;;;;;;6162844;23;20001;-89
2022/02/26 03:40:12;;;;;;;13.88;5.13;;;2.50;99.90;;;;;;6162654;23;20005;-89
2022/02/26 03:42:41;;;;;;;12.07;4.90;;;2.50;99.90;;;;;;6172446;23;20009;-89
2022/02/26 03:45:29;;;;;;;;;;;;;;;;;;;;;
2022/02/26 03:48:00;;;;;;;14.70;5.07;;;2.50;99.90;;;;;;6188667;23;20092;-89
2022/02/26 03:50:34;;;;;;;18.75;5.55;;;2.50;99.90;;;;;;6162164;23;20032;-90
2022/02/26 03:53:13;;;;;;;17.25;5.00;;;2.50;99.90;;;;;;6162746;23;20035;-89
2022/02/26 03:55:41;;;;;;;24.38;8.15;;;2.50;99.90;;;;;;6164599;23;20009;-89
2022/02/26 03:58:22;;;;;;;;;;;;;;;;;;;;;
2022/02/26 04:00:51;;;;;;;;;;;2.50;99.90;;;;;;6166010;23;20085;-90
2022/02/26 04:03:32;;;;;;;;;;;;;;;;;;;;;
2022/02/26 04:06:01;;;;;;;18.63;5.65;;;2.40;99.90;;;;;;6158485;23;20503;-90
2022/02/26 04:08:30;;;;;;;21.00;5.82;;;2.40;99.90;;;;;;6157458;23;20017;-90
2022/02/26 04:11:34;;;;;;;18.25;4.93;;;2.40;99.90;;;;;;6158708;23;20025;-89
2022/02/26 04:14:08;;;;;;;15.43;5.40;;;2.30;99.90;;;;;;6136066;23;20013;-90
2022/02/26 04:16:37;;;;;;;18.02;5.65;;;2.30;99.90;;;;;;6156931;23;20005;-90
2022/02/26 04:19:13;;;;;;;19.50;5.70;;;2.30;99.90;;;;;;6155775;23;20012;-89
2022/02/26 04:21:43;;;;;;;18.15;5.78;;;2.30;99.90;;;;;;6157364;23;20424;-89
2022/02/26 04:24:51;;;;;;;24.30;6.90;;;2.40;99.90;;;;;;6133281;23;20435;-90
2022/02/26 04:33:39;;;;;;;19.00;6.40;;;2.40;99.90;;;;;;6097443;23;20054;-90
2022/02/26 04:36:45;;;;;;;20.80;6.75;;;2.40;99.90;;;;;;6072628;23;20014;-90
2022/02/26 04:39:35;;;;;;;24.05;7.22;;;2.40;99.90;;;;;;6073147;23;20030;-89
2022/02/26 04:42:15;;;;;;;16.77;7.05;;;2.50;99.90;;;;;;6130982;23;20008;-89
2022/02/26 04:44:48;;;;;;;27.00;8.80;;;2.40;99.90;;;;;;6157583;23;20048;-89
2022/02/26 04:47:23;;;;;;;22.27;6.47;;;2.40;99.90;;;;;;6157098;23;20004;-89
2022/02/26 04:50:12;;;;;;;25.38;7.35;;;2.50;99.90;;;;;;6156880;23;20032;-91
2022/02/26 04:52:54;;;;;;;28.33;7.22;;;2.40;99.90;;;;;;6132121;23;20087;-89
2022/02/26 04:55:32;;;;;;;;;;;;;;;;;;;;;
2022/02/26 04:58:00;;;;;;;20.23;8.30;;;2.50;99.90;;;;;;6158066;23;20080;-89
2022/02/26 05:00:31;;;;;;;13.98;6.05;;;2.40;99.90;;;;;;6157065;23;20001;-89
2022/02/26 05:03:04;;;;;;;;;;;2.50;99.90;;;;;;6133230;23;20021;-89
2022/02/26 05:05:45;;;;;;;19.40;7.13;;;2.50;99.90;;;;;;6160899;23;19900;-89
2022/02/26 05:08:23;;;;;;;20.15;7.22;;;2.40;99.90;;;;;;6164927;23;19997;-87
2022/02/26 05:11:38;;;;;;;22.33;6.97;;;2.40;99.90;;;;;;6136988;23;20028;-88
2022/02/26 05:14:39;;;;;;;27.48;7.00;;;2.40;99.90;;;;;;6143350;23;20104;-88
2022/02/26 05:17:25;;;;;;;;;;;;;;;;;;;;;
2022/02/26 05:19:54;;;;;;;25.95;6.90;;;2.30;99.90;;;;;;6157821;23;20068;-91
2022/02/26 05:22:23;;;;;;;33.72;8.75;;;2.30;99.90;;;;;;6156855;23;20420;-89
2022/02/26 05:24:54;;;;;;;29.05;7.30;;;2.30;99.90;;;;;;6130959;23;20013;-89
2022/02/26 05:27:41;;;;;;;;;;;;;;;;;;;;;
2022/02/26 05:30:17;;;;;;;22.48;8.02;;;2.30;99.90;;;;;;6159679;23;20037;-89
2022/02/26 05:32:57;;;;;;;24.80;7.57;;;2.20;99.90;;;;;;6159030;23;20009;-88
2022/02/26 05:35:45;;;;;;;37.42;8.57;;;2.20;99.90;;;;;;6157120;23;20048;-89
2022/02/26 05:38:11;;;;;;;39.22;8.82;;;2.20;99.90;;;;;;6156567;23;20055;-88
2022/02/26 05:40:59;;;;;;;35.05;9.07;;;2.20;99.90;;;;;;6156380;23;20021;-88
2022/02/26 05:43:30;;;;;;;39.08;9.55;;;2.20;99.90;;;;;;6132245;23;20013;-89
2022/02/26 05:46:08;;;;;;;;;;;2.20;99.90;;;;;;6132840;23;20002;-89
2022/02/26 05:48:45;;;;;;;33.90;8.57;;;2.20;99.90;;;;;;6156240;23;20323;-88
2022/02/26 05:51:54;;;;;;;34.88;8.82;;;2.10;99.90;;;;;;6132873;23;20013;-88
2022/02/26 05:54:22;;;;;;;37.45;9.02;;;2.10;99.90;;;;;;6155729;23;20006;-88
2022/02/26 05:57:32;;;;;;;35.63;9.02;;;2.10;99.90;;;;;;6156212;23;20012;-88
2022/02/26 06:00:02;;;;;;;42.47;11.07;;;2.10;99.90;;;;;;6156020;23;20144;-88
2022/02/26 06:02:30;;;;;;;;;;;2.00;99.90;;;;;;6156416;23;20028;-88
2022/02/26 06:05:04;;;;;;;36.15;8.27;;;2.10;99.90;;;;;;6156415;23;19979;-89
2022/02/26 06:07:32;;;;;;;28.88;8.93;;;2.00;99.90;;;;;;6155400;23;20084;-88
2022/02/26 06:10:01;;;;;;;39.88;9.30;;;2.00;99.90;;;;;;6156489;23;19998;-88
2022/02/26 06:12:45;;;;;;;30.73;8.73;;;2.00;99.90;;;;;;6156166;23;20004;-87
2022/02/26 06:15:50;;;;;;;42.78;9.27;;;2.00;99.90;;;;;;6132031;23;20006;-88
2022/02/26 06:18:28;;;;;;;29.73;9.43;;;2.00;99.90;;;;;;6156576;23;20008;-88
2022/02/26 06:20:57;;;;;;;29.50;8.63;;;2.00;99.90;;;;;;6132563;23;20002;-88
2022/02/26 06:23:39;;;;;;;27.08;8.13;;;2.00;99.90;;;;;;6156903;23;20008;-90
2022/02/26 06:26:23;;;;;;;17.23;8.30;;;1.90;99.90;;;;;;6135872;23;20013;-89
2022/02/26 06:29:00;;;;;;;26.77;8.73;;;1.90;99.90;;;;;;6157696;23;20033;-89
2022/02/26 06:31:28;;;;;;;31.70;9.05;;;1.90;99.90;;;;;;6158173;23;20005;-88
2022/02/26 06:33:57;;;;;;;25.63;9.25;;;1.90;99.90;;;;;;6156645;23;20084;-88
2022/02/26 06:36:26;;;;;;;17.95;8.35;;;1.90;99.90;;;;;;6156254;23;20017;-89
2022/02/26 06:38:57;;;;;;;31.50;9.10;;;1.90;99.90;;;;;;6156327;23;20006;-90
2022/02/26 06:41:22;;;;;;;54.90;9.80;;;1.90;99.90;;;;;;6157151;23;19997;-90
2022/02/26 06:43:53;;;;;;;41.40;10.32;;;1.90;99.90;;;;;;6157556;23;20425;-89
2022/02/26 06:46:21;;;;;;;38.13;10.68;;;1.90;99.90;;;;;;6112875;23;20002;-88
2022/02/26 06:49:15;;;;;;;;;;;;;;;;;;;;;
2022/02/26 06:51:50;;;;;;;41.00;10.88;;;1.90;99.90;;;;;;6179411;23;20005;-89
2022/02/26 06:57:13;;;;;;;;;;;;;;;;;;;;;
2022/02/26 06:59:49;;;;;;;;;;;;;;;;;;;;;
2022/02/26 07:02:17;;;;;;;35.58;11.63;;;1.90;99.90;;;;;;6185728;23;20001;-89
2022/02/26 07:04:48;;;;;;;23.98;10.07;;;1.90;99.90;;;;;;6161359;23;20073;-89
2022/02/26 07:07:25;;;;;;;;;;;1.90;99.90;;;;;;6142553;23;20005;-89
2022/02/26 07:09:56;;;;;;;18.73;9.65;;;1.90;99.90;;;;;;6189593;23;19971;-88
2022/02/26 07:12:36;;;;;;;23.65;10.68;;;1.90;99.90;;;;;;6138289;23;20009;-89
2022/02/26 07:15:02;;;;;;;19.40;10.45;;;1.90;99.90;;;;;;6141579;23;20040;-89
2022/02/26 07:17:33;;;;;;;28.67;10.57;;;1.90;99.90;;;;;;6163297;23;20001;-88
2022/02/26 07:20:06;;;;;;;30.40;11.57;;;1.90;99.90;;;;;;6189459;23;19997;-89
2022/02/26 07:22:39;;;;;;;18.45;11.93;;;1.90;99.90;;;;;;6138882;23;20012;-89
2022/02/26 07:25:16;;;;;;;;;;;;;;;;;;;;;
2022/02/26 07:27:49;;;;;;;34.17;12.52;;;1.90;99.90;;;;;;6188706;23;20084;-89
2022/02/26 07:30:30;;;;;;;17.05;11.00;;;2.00;99.90;;;;;;6115025;23;20008;-89
2022/02/26 07:33:10;;;;;;;;;;;;;;;;;;;;;
2022/02/26 07:35:40;;;;;;;16.25;10.13;;;2.00;99.90;;;;;;6188678;23;20515;-90
2022/02/26 07:38:15;;;;;;;19.33;10.55;;;2.00;99.90;;;;;;6162745;23;20001;-91
2022/02/26 07:40:57;;;;;;;20.35;11.52;;;2.00;99.90;;;;;;6139572;23;20088;-89
2022/02/26 07:43:26;;;;;;;46.88;16.10;;;2.00;99.90;;;;;;6162289;23;20100;-89
2022/02/26 07:46:00;;;;;;;20.88;12.35;;;2.00;99.90;;;;;;6138210;23;20005;-89
2022/02/26 07:48:39;;;;;;;28.92;14.07;;;2.00;99.90;;;;;;6162162;23;19997;-89
2022/02/26 07:51:10;;;;;;;25.70;12.85;;;2.00;99.90;;;;;;6138661;23;20036;-89
2022/02/26 07:53:58;;;;;;;;;;;;;;;;;;;;;
2022/02/26 07:56:34;;;;;;;20.05;13.57;;;2.00;99.90;;;;;;6164526;23;20084;-90
2022/02/26 07:59:13;;;;;;;;;;;;;;;;;;;;;
2022/02/26 08:01:59;;;;;;;20.90;12.32;;;2.10;99.90;;;;;;6188755;23;20072;-89
2022/02/26 08:04:31;;;;;;;50.03;13.98;;;2.10;99.90;;;;;;6156685;23;20017;-89
2022/02/26 08:07:02;;;;;;;;;;;2.10;99.90;;;;;;6133029;23;20069;-89
2022/02/26 08:09:30;;;;;;;37.00;12.57;;;2.10;99.90;;;;;;6157436;23;19905;-89
2022/02/26 08:12:20;;;;;;;18.40;12.32;;;2.10;99.90;;;;;;6162764;23;19997;-89
2022/02/26 08:14:45;;;;;;;32.90;13.20;;;2.10;99.90;;;;;;6166649;23;20009;-89
2022/02/26 08:17:16;;;;;;;29.10;13.32;;;2.10;99.90;;;;;;6161000;23;20060;-89
2022/02/26 08:19:42;;;;;;;23.70;11.75;;;2.10;99.90;;;;;;6156845;23;20013;-88
2022/02/26 08:22:13;;;;;;;32.45;12.23;;;2.20;99.90;;;;;;6156012;23;20317;-89
2022/02/26 08:24:56;;;;;;;46.65;13.55;;;2.20;99.90;;;;;;6157247;23;20016;-88
2022/02/26 08:27:24;;;;;;;75.43;14.57;;;2.20;99.90;;;;;;6135034;23;20006;-88
2022/02/26 08:30:07;;;;;;;43.08;14.13;;;2.20;99.90;;;;;;6159095;23;20113;-89
2022/02/26 08:32:43;;;;;;;45.08;12.55;;;2.20;99.90;;;;;;6136377;23;20005;-88
2022/02/26 08:35:20;;;;;;;45.10;13.50;;;2.20;99.90;;;;;;6157206;23;20056;-89
2022/02/26 08:37:51;;;;;;;72.38;12.88;;;2.20;99.90;;;;;;6156910;23;20061;-89
2022/02/26 08:40:20;;;;;;;78.43;12.60;;;2.20;99.90;;;;;;6156921;23;20020;-89
2022/02/26 08:42:48;;;;;;;62.72;12.88;;;2.20;99.90;;;;;;6156958;23;20064;-88
2022/02/26 08:45:36;;;;;;;;;;;;;;;;;;;;;
2022/02/26 08:48:05;;;;;;;34.83;12.82;;;2.10;99.90;;;;;;6158325;23;20072;-88
2022/02/26 08:50:33;;;;;;;45.25;12.77;;;2.10;99.90;;;;;;6156408;23;20018;-89
2022/02/26 08:53:19;;;;;;;55.88;13.30;;;2.10;99.90;;;;;;6156879;23;20010;-89
2022/02/26 08:55:45;;;;;;;54.65;13.73;;;2.20;99.90;;;;;;6156654;23;20064;-88
2022/02/26 08:58:21;;;;;;;30.33;14.52;;;2.20;99.90;;;;;;6157086;23;20008;-88
2022/02/26 09:00:51;;;;;;;53.83;14.60;;;2.20;99.90;;;;;;6134189;23;20005;-90
2022/02/26 09:03:20;;;;;;;32.55;13.32;;;2.30;99.90;;;;;;6156491;23;20014;-89
2022/02/26 09:05:51;;;;;;;100.15;15.98;;;2.20;99.90;;;;;;6156948;23;20010;-88
2022/02/26 09:08:22;;;;;;;88.85;17.52;;;2.30;99.90;;;;;;6158077;23;19997;-89
2022/02/26 09:17:19;;;;;;;;;;;2.30;99.90;;;;;;6130333;23;20506;-89
2022/02/26 09:19:45;;;;;;;55.35;16.95;;;2.40;99.90;;;;;;6132867;23;19909;-88
2022/02/26 09:22:11;;;;;;;69.50;20.08;;;2.40;99.90;;;;;;6133982;23;20010;-88
2022/02/26 09:24:37;;;;;;;47.58;21.38;;;2.40;99.90;;;;;;6158904;23;20016;-89
2022/02/26 09:27:03;;;;;;;50.03;19.80;;;2.50;99.90;;;;;;6109267;23;20495;-88
2022/02/26 09:29:28;;;;;;;53.55;19.25;;;2.60;99.90;;;;;;6132633;23;20065;-90
2022/02/26 09:32:00;;;;;;;70.15;21.42;;;2.60;99.90;;;;;;6156818;23;20372;-90
2022/02/26 09:34:29;;;;;;;64.05;23.75;;;2.70;99.90;;;;;;6132805;23;20006;-92
2022/02/26 09:36:57;;;;;;;52.75;28.80;;;2.80;99.90;;;;;;6132774;23;20013;-89
2022/02/26 09:39:23;;;;;;;57.85;28.20;;;2.80;99.90;;;;;;6156886;23;20412;-89
2022/02/26 09:41:50;;;;;;;59.17;29.85;;;2.90;99.90;;;;;;6132183;23;20016;-90
2022/02/26 09:44:16;;;;;;;66.07;34.38;;;3.00;99.90;;;;;;6132222;23;20005;-89
2022/02/26 09:46:43;;;;;;;78.65;40.58;;;3.10;99.90;;;;;;6131965;23;20084;-88
2022/02/26 09:49:16;;;;;;;52.25;32.90;;;3.20;99.90;;;;;;6156904;23;20096;-89
2022/02/26 09:51:43;;;;;;;62.55;36.03;;;3.30;99.90;;;;;;6157743;23;20124;-88
2022/02/26 09:54:10;;;;;;;47.22;31.73;;;3.40;99.90;;;;;;6157005;23;20332;-88
2022/02/26 09:56:36;;;;;;;56.97;33.85;;;3.50;99.90;;;;;;6157000;23;20500;-89
2022/02/26 09:59:03;;;;;;;55.10;32.55;;;3.70;99.90;;;;;;6156390;23;20002;-88
2022/02/26 10:01:30;;;;;;;65.93;36.10;;;3.80;99.90;;;;;;6155985;23;20413;-89
2022/02/26 10:04:07;;;;;;;48.70;31.40;;;3.90;99.90;;;;;;6131660;23;20013;-89
2022/02/26 10:06:32;;;;;;;54.35;33.60;;;4.10;99.90;;;;;;6157024;23;20047;-89
2022/02/26 10:09:00;;;;;;;50.22;31.00;;;4.20;99.90;;;;;;6156808;23;20001;-87
2022/02/26 10:11:31;;;;;;;61.50;34.97;;;4.40;99.90;;;;;;6156340;23;20002;-90
2022/02/26 10:14:13;;;;;;;54.97;33.50;;;4.50;99.90;;;;;;6159323;23;20081;-89
2022/02/26 10:17:00;;;;;;;51.97;31.60;;;4.70;99.90;;;;;;6157006;23;20244;-89
2022/02/26 10:19:32;;;;;;;50.35;29.40;;;4.80;99.90;;;;;;6134244;23;20009;-88
2022/02/26 10:22:03;;;;;;;50.25;31.00;;;5.00;99.90;;;;;;6155987;23;20044;-90
2022/02/26 10:24:39;;;;;;;51.10;26.65;;;5.10;99.90;;;;;;6131026;23;20009;-89
2022/02/26 10:27:17;;;;;;;42.05;22.02;;;5.30;99.90;;;;;;6156323;23;20084;-88
2022/02/26 10:29:56;;;;;;;38.72;19.75;;;5.40;99.90;;;;;;6157230;23;20013;-88
2022/02/26 10:32:26;;;;;;;46.10;21.73;;;5.60;99.90;;;;;;6147523;23;20002;-89
2022/02/26 10:34:56;;;;;;;31.05;16.33;;;5.70;99.90;;;;;;6177490;23;20446;-89
2022/02/26 10:37:22;;;;;;;32.55;12.75;;;5.90;99.90;;;;;;6178686;23;20041;-89
2022/02/26 10:40:02;;;;;;;35.67;10.45;;;6.00;99.90;;;;;;6181715;23;20049;-88
2022/02/26 10:42:42;;;;;;;31.73;10.45;;;6.20;99.90;;;;;;6182407;23;19994;-92
2022/02/26 10:45:14;;;;;;;18.48;7.22;;;6.30;99.90;;;;;;6180219;23;20009;-88
2022/02/26 10:48:03;;;;;;;24.30;8.48;;;6.50;99.90;;;;;;6180484;23;20017;-88
2022/02/26 10:50:34;;;;;;;23.88;5.68;;;6.60;99.90;;;;;;6169448;23;20025;-88
2022/02/26 10:53:14;;;;;;;20.33;4.95;;;6.80;99.90;;;;;;6134729;23;20009;-89
2022/02/26 10:55:57;;;;;;;20.08;7.35;;;6.90;99.90;;;;;;6135371;23;20005;-89
2022/02/26 10:58:35;;;;;;;21.05;6.95;;;6.90;99.90;;;;;;6157789;23;20081;-88
2022/02/26 11:01:04;;;;;;;19.13;7.85;;;7.00;99.90;;;;;;6133858;23;20009;-88
2022/02/26 11:03:39;;;;;;;19.58;7.40;;;7.00;99.90;;;;;;6156734;23;20013;-88
2022/02/26 11:06:32;;;;;;;24.83;6.40;;;7.20;99.90;;;;;;6158828;23;20009;-96
2022/02/26 11:09:04;;;;;;;19.05;6.25;;;7.30;99.90;;;;;;6157188;23;20001;-94
2022/02/26 11:11:34;;;;;;;20.15;5.47;;;7.40;99.90;;;;;;6158069;23;20060;-90
2022/02/26 11:14:21;;;;;;;16.92;5.63;;;7.50;99.90;;;;;;6157773;23;20008;-89
2022/02/26 11:16:49;;;;;;;21.38;4.50;;;7.70;99.90;;;;;;6157990;23;20002;-89
2022/02/26 11:19:25;;;;;;;13.90;3.58;;;7.80;99.90;;;;;;6165625;23;20049;-89
2022/02/26 11:22:28;;;;;;;15.80;4.18;;;7.90;99.90;;;;;;6174747;23;20032;-94
2022/02/26 11:25:29;;;;;;;19.08;3.55;;;7.90;99.90;;;;;;6045298;23;20005;-94
2022/02/26 11:27:55;;;;;;;13.93;3.40;;;8.00;99.90;;;;;;6133637;23;20009;-91
2022/02/26 11:30:48;;;;;;;14.88;2.67;;;8.10;99.90;;;;;;6157914;23;20001;-90
2022/02/26 11:33:17;;;;;;;9.60;2.10;;;8.20;99.90;;;;;;6133847;23;20009;-89
2022/02/26 11:35:59;;;;;;;14.55;2.25;;;8.30;99.90;;;;;;6157761;23;20009;-89
2022/02/26 11:38:38;;;;;;;14.20;2.00;;;8.50;99.90;;;;;;6158091;23;20080;-89
2022/02/26 11:41:30;;;;;;;14.43;2.28;;;8.50;99.90;;;;;;6157947;23;20008;-90
2022/02/26 11:44:00;;;;;;;14.57;2.70;;;8.60;99.90;;;;;;6157364;23;20001;-87
2022/02/26 11:47:17;;;;;;;13.30;2.58;;;8.70;99.90;;;;;;6157826;23;20085;-87
2022/02/26 11:50:14;;;;;;;12.73;2.47;;;8.80;99.90;;;;;;6157429;23;20053;-88
2022/02/26 11:52:56;;;;;;;15.10;3.45;;;8.90;99.90;;;;;;6157157;23;20001;-88
2022/02/26 11:55:34;;;;;;;16.98;3.10;;;9.00;99.90;;;;;;6157521;23;20512;-89
2022/02/26 11:58:12;;;;;;;17.40;3.20;;;9.10;99.90;;;;;;6157672;23;20002;-87
2022/02/26 12:01:06;;;;;;;17.60;3.40;;;9.20;99.90;;;;;;6164471;23;20006;-89
2022/02/26 12:03:44;;;;;;;12.95;3.10;;;9.40;99.90;;;;;;6157475;23;20463;-89
2022/02/26 12:06:21;;;;;;;17.10;2.95;;;9.50;99.90;;;;;;6158551;23;20009;-89
2022/02/26 12:08:53;;;;;;;12.10;2.50;;;9.60;99.90;;;;;;6158209;23;20044;-89
2022/02/26 12:11:31;;;;;;;10.35;2.28;;;9.70;99.90;;;;;;6157416;23;20006;-88
2022/02/26 12:14:01;;;;;;;18.17;2.55;;;9.80;99.90;;;;;;6156990;23;20088;-88
2022/02/26 12:16:47;;;;;;;12.60;3.03;;;9.90;99.90;;;;;;6157078;23;20031;-90
2022/02/26 12:23:22;;;;;;;;;;;;;;;;;;;;;
2022/02/26 12:26:03;;;;;;;11.15;2.83;;;10.10;99.90;;;;;;6039597;23;20592;-89
2022/02/26 12:28:31;;;;;;;13.93;3.33;;;10.10;99.90;;;;;;6015876;23;20010;-89
2022/02/26 12:31:03;;;;;;;13.90;2.35;;;10.20;99.90;;;;;;6039581;23;20059;-89
2022/02/26 12:33:52;;;;;;;11.98;2.40;;;10.30;99.90;;;;;;6129790;23;20005;-89
2022/02/26 12:36:21;;;;;;;11.88;2.50;;;10.40;99.90;;;;;;6156814;23;20092;-90
2022/02/26 12:39:09;;;;;;;9.77;1.88;;;10.40;99.90;;;;;;6158372;23;20023;-91
2022/02/26 12:41:43;;;;;;;12.90;2.67;;;10.50;99.90;;;;;;6158142;23;20005;-91
2022/02/26 12:48:28;;;;;;;9.68;2.22;;;10.60;99.90;;;;;;6155442;23;20013;-95
2022/02/26 12:51:32;;;;;;;;;;;;;;;;;;;;;
2022/02/26 12:53:52;;;;;;;15.98;2.95;;;10.70;99.90;;;;;;6155402;23;20006;-92
2022/02/26 12:56:43;;;;;;;13.77;2.50;;;10.70;99.90;;;;;;6157494;23;20009;-94
2022/02/26 12:59:57;;;;;;;;;;;;;;;;;;;;;
2022/02/26 13:09:50;;;;;;;;;;;;;;;;;;;;;
2022/02/26 13:15:48;;;;;;;;;;;10.80;99.90;;;;;;6097639;23;20061;-90
2022/02/26 13:18:15;;;;;;;15.23;2.90;;;10.80;99.90;;;;;;6073362;23;20037;-89
2022/02/26 13:20:42;;;;;;;18.38;5.13;;;10.90;99.90;;;;;;6072373;23;20090;-90
2022/02/26 13:23:37;;;;;;;21.88;6.28;;;10.90;99.90;;;;;;6072093;23;20085;-90
2022/02/26 13:26:08;;;;;;;19.98;6.25;;;10.80;99.90;;;;;;6071241;23;20100;-88
2022/02/26 13:28:45;;;;;;;;;;;10.80;99.90;;;;;;6051276;23;20010;-89
2022/02/26 13:31:11;;;;;;;19.38;6.40;;;10.80;99.90;;;;;;6073997;23;19902;-89
2022/02/26 13:33:44;;;;;;;16.55;5.60;;;10.70;99.90;;;;;;6156847;23;20009;-89
2022/02/26 13:36:15;;;;;;;17.42;6.13;;;10.70;99.90;;;;;;6157193;23;20006;-89
2022/02/26 13:38:56;;;;;;;13.95;6.63;;;10.50;99.90;;;;;;6158951;23;20024;-89
2022/02/26 13:44:12;;;;;;;22.23;9.32;;;10.50;99.90;;;;;;6097467;23;20016;-90
2022/02/26 13:46:52;;;;;;;19.77;8.98;;;10.30;99.90;;;;;;6156013;23;20040;-90
2022/02/26 13:49:21;;;;;;;21.98;10.63;;;10.30;99.90;;;;;;6133072;23;20444;-88
2022/02/26 13:51:52;;;;;;;22.48;12.60;;;10.30;99.90;;;;;;6132631;23;20005;-90
2022/02/26 13:54:21;;;;;;;22.00;12.52;;;10.20;99.90;;;;;;6158501;23;20010;-85
2022/02/26 13:56:57;;;;;;;23.60;13.52;;;10.10;99.90;;;;;;6156539;23;20016;-85
2022/02/26 13:59:29;;;;;;;25.23;13.07;;;10.00;99.90;;;;;;6157170;23;19997;-85
2022/02/26 14:02:06;;;;;;;;;;;;;;;;;;;;;
2022/02/26 14:04:40;;;;;;;26.60;13.27;;;10.00;99.90;;;;;;6158658;23;20365;-86
2022/02/26 14:07:11;;;;;;;22.95;11.48;;;10.00;99.90;;;;;;6159797;23;20084;-86
2022/02/26 14:09:44;;;;;;;;;;;9.80;99.90;;;;;;6164825;23;19997;-86
2022/02/26 14:12:20;;;;;;;20.05;10.18;;;9.60;99.90;;;;;;6191167;23;19900;-85
2022/02/26 14:15:23;;;;;;;24.40;10.93;;;9.40;99.90;;;;;;6166540;23;20087;-87
2022/02/26 14:18:02;;;;;;;26.60;9.95;;;9.20;99.90;;;;;;6179632;23;20013;-87
2022/02/26 14:20:36;;;;;;;23.98;9.75;;;9.00;99.90;;;;;;6138674;23;19997;-86
2022/02/26 14:23:08;;;;;;;24.88;9.68;;;8.90;99.90;;;;;;6187294;23;20027;-89
2022/02/26 14:26:02;;;;;;;;;;;;;;;;;;;;;
2022/02/26 14:28:33;;;;;;;26.33;10.85;;;8.70;99.90;;;;;;6209101;23;20040;-88
2022/02/26 14:31:24;;;;;;;23.90;11.93;;;8.70;99.90;;;;;;6158625;23;20009;-88
2022/02/26 14:33:55;;;;;;;24.20;11.60;;;8.80;99.90;;;;;;6164259;23;20036;-87
2022/02/26 14:36:21;;;;;;;19.58;10.75;;;8.90;99.90;;;;;;6169647;23;20009;-87
2022/02/26 14:38:47;;;;;;;26.35;11.75;;;8.90;99.90;;;;;;6161379;23;20001;-87
2022/02/26 14:41:13;;;;;;;22.83;11.27;;;9.00;99.90;;;;;;6161360;23;20075;-86
2022/02/26 14:43:41;;;;;;;23.83;10.82;;;9.10;99.90;;;;;;6161716;23;20009;-85
2022/02/26 14:46:07;;;;;;;22.02;10.82;;;9.10;99.90;;;;;;6186897;23;19997;-85
2022/02/26 14:48:38;;;;;;;25.42;10.75;;;9.20;99.90;;;;;;6159588;23;20030;-85
2022/02/26 14:51:06;;;;;;;21.55;10.43;;;9.20;99.90;;;;;;6136614;23;20009;-85
2022/02/26 14:53:32;;;;;;;21.55;10.32;;;9.20;99.90;;;;;;6136919;23;20092;-86
2022/02/26 14:56:16;;;;;;;23.80;11.02;;;9.20;99.90;;;;;;6160752;23;20068;-87
2022/02/26 14:58:47;;;;;;;22.75;10.52;;;9.30;99.90;;;;;;6138578;23;20009;-88
2022/02/26 15:01:15;;;;;;;32.60;11.25;;;9.20;99.90;;;;;;6161676;23;20061;-86